sensor_id;sensor_type;location;lat;lon;timestamp;P1;durP1;ratioP1;P2;durP2;ratioP2
21519;SDS011;10921;53.614;9.882;2023-08-12T00:00:05;19.23;;;14.88;;
21519;SDS011;10921;53.614;9.882;2023-08-12T00:02:38;17.02;;;15.05;;
21519;SDS011;10921;53.614;9.882;2023-08-12T00:05:06;15.43;;;13.90;;
21519;SDS011;10921;53.614;9.882;2023-08-12T00:07:34;15.32;;;13.75;;
21519;SDS011;10921;53.614;9.882;2023-08-12T00:10:01;16.48;;;13.75;;
21519;SDS011;10921;53.614;9.882;2023-08-12T00:12:30;16.25;;;13.27;;
21519;SDS011;10921;53.614;9.882;2023-08-12T00:14:58;15.40;;;13.82;;
21519;SDS011;10921;53.614;9.882;2023-08-12T00:17:25;15.15;;;13.77;;
21519;SDS011;10921;53.614;9.882;2023-08-12T00:19:51;16.90;;;14.07;;
21519;SDS011;10921;53.614;9.882;2023-08-12T00:22:18;17.15;;;13.57;;
21519;SDS011;10921;53.614;9.882;2023-08-12T00:24:45;14.32;;;12.88;;
21519;SDS011;10921;53.614;9.882;2023-08-12T00:27:13;18.63;;;14.20;;
21519;SDS011;10921;53.614;9.882;2023-08-12T00:29:39;17.75;;;13.48;;
21519;SDS011;10921;53.614;9.882;2023-08-12T00:32:08;14.85;;;13.43;;
21519;SDS011;10921;53.614;9.882;2023-08-12T00:34:35;16.52;;;13.25;;
21519;SDS011;10921;53.614;9.882;2023-08-12T00:37:02;17.70;;;13.60;;
21519;SDS011;10921;53.614;9.882;2023-08-12T00:39:28;16.02;;;13.27;;
21519;SDS011;10921;53.614;9.882;2023-08-12T00:41:55;16.08;;;13.15;;
21519;SDS011;10921;53.614;9.882;2023-08-12T00:44:21;14.95;;;13.38;;
21519;SDS011;10921;53.614;9.882;2023-08-12T00:46:48;14.70;;;13.38;;
21519;SDS011;10921;53.614;9.882;2023-08-12T00:49:15;14.32;;;13.02;;
21519;SDS011;10921;53.614;9.882;2023-08-12T00:51:43;17.08;;;13.05;;
21519;SDS011;10921;53.614;9.882;2023-08-12T00:54:13;14.15;;;12.90;;
21519;SDS011;10921;53.614;9.882;2023-08-12T00:56:41;16.85;;;13.82;;
21519;SDS011;10921;53.614;9.882;2023-08-12T00:59:08;18.67;;;13.63;;
21519;SDS011;10921;53.614;9.882;2023-08-12T01:01:38;14.82;;;13.32;;
21519;SDS011;10921;53.614;9.882;2023-08-12T01:04:10;17.15;;;13.65;;
21519;SDS011;10921;53.614;9.882;2023-08-12T01:06:37;21.05;;;13.45;;
21519;SDS011;10921;53.614;9.882;2023-08-12T01:09:03;16.75;;;13.65;;
21519;SDS011;10921;53.614;9.882;2023-08-12T01:11:42;15.43;;;14.02;;
21519;SDS011;10921;53.614;9.882;2023-08-12T01:17:12;15.25;;;13.68;;
21519;SDS011;10921;53.614;9.882;2023-08-12T01:19:40;15.70;;;13.73;;
21519;SDS011;10921;53.614;9.882;2023-08-12T01:22:09;15.40;;;13.80;;
21519;SDS011;10921;53.614;9.882;2023-08-12T01:24:41;17.05;;;13.88;;
21519;SDS011;10921;53.614;9.882;2023-08-12T01:27:10;15.50;;;14.00;;
21519;SDS011;10921;53.614;9.882;2023-08-12T01:29:40;16.25;;;13.18;;
21519;SDS011;10921;53.614;9.882;2023-08-12T01:35:14;14.45;;;13.00;;
21519;SDS011;10921;53.614;9.882;2023-08-12T01:37:46;15.32;;;13.75;;
21519;SDS011;10921;53.614;9.882;2023-08-12T01:40:16;16.95;;;13.95;;
21519;SDS011;10921;53.614;9.882;2023-08-12T01:42:44;17.15;;;14.15;;
21519;SDS011;10921;53.614;9.882;2023-08-12T01:45:12;14.80;;;13.40;;
21519;SDS011;10921;53.614;9.882;2023-08-12T01:47:38;15.18;;;13.68;;
21519;SDS011;10921;53.614;9.882;2023-08-12T01:52:36;18.65;;;13.30;;
21519;SDS011;10921;53.614;9.882;2023-08-12T01:55:02;14.98;;;13.40;;
21519;SDS011;10921;53.614;9.882;2023-08-12T01:57:30;14.73;;;13.43;;
21519;SDS011;10921;53.614;9.882;2023-08-12T01:59:56;15.25;;;13.63;;
21519;SDS011;10921;53.614;9.882;2023-08-12T02:02:23;15.65;;;14.35;;
21519;SDS011;10921;53.614;9.882;2023-08-12T02:04:50;16.25;;;14.85;;
21519;SDS011;10921;53.614;9.882;2023-08-12T02:07:16;17.35;;;14.27;;
21519;SDS011;10921;53.614;9.882;2023-08-12T02:09:43;15.77;;;14.30;;
21519;SDS011;10921;53.614;9.882;2023-08-12T02:12:09;16.25;;;14.23;;
21519;SDS011;10921;53.614;9.882;2023-08-12T02:14:36;15.70;;;14.07;;
21519;SDS011;10921;53.614;9.882;2023-08-12T02:17:05;15.03;;;13.63;;
21519;SDS011;10921;53.614;9.882;2023-08-12T02:19:32;15.70;;;13.45;;
21519;SDS011;10921;53.614;9.882;2023-08-12T02:22:00;16.63;;;14.32;;
21519;SDS011;10921;53.614;9.882;2023-08-12T02:24:28;16.08;;;14.43;;
21519;SDS011;10921;53.614;9.882;2023-08-12T02:26:54;16.98;;;14.55;;
21519;SDS011;10921;53.614;9.882;2023-08-12T02:29:21;16.50;;;14.35;;
21519;SDS011;10921;53.614;9.882;2023-08-12T02:31:47;16.15;;;14.25;;
21519;SDS011;10921;53.614;9.882;2023-08-12T02:34:14;16.83;;;15.02;;
21519;SDS011;10921;53.614;9.882;2023-08-12T02:36:40;15.43;;;13.93;;
21519;SDS011;10921;53.614;9.882;2023-08-12T02:39:07;15.02;;;13.90;;
21519;SDS011;10921;53.614;9.882;2023-08-12T02:41:33;17.02;;;14.25;;
21519;SDS011;10921;53.614;9.882;2023-08-12T02:44:00;15.48;;;13.95;;
21519;SDS011;10921;53.614;9.882;2023-08-12T02:46:26;17.55;;;14.45;;
21519;SDS011;10921;53.614;9.882;2023-08-12T02:48:53;15.68;;;14.00;;
21519;SDS011;10921;53.614;9.882;2023-08-12T02:51:19;14.65;;;13.40;;
21519;SDS011;10921;53.614;9.882;2023-08-12T02:53:46;16.15;;;14.55;;
21519;SDS011;10921;53.614;9.882;2023-08-12T02:56:12;15.52;;;14.23;;
21519;SDS011;10921;53.614;9.882;2023-08-12T02:58:39;15.73;;;14.18;;
21519;SDS011;10921;53.614;9.882;2023-08-12T03:01:05;15.88;;;14.05;;
21519;SDS011;10921;53.614;9.882;2023-08-12T03:03:32;17.42;;;14.20;;
21519;SDS011;10921;53.614;9.882;2023-08-12T03:05:59;15.88;;;14.50;;
21519;SDS011;10921;53.614;9.882;2023-08-12T03:08:25;15.68;;;14.32;;
21519;SDS011;10921;53.614;9.882;2023-08-12T03:11:01;15.77;;;14.48;;
21519;SDS011;10921;53.614;9.882;2023-08-12T03:13:28;17.40;;;14.88;;
21519;SDS011;10921;53.614;9.882;2023-08-12T03:15:55;15.95;;;14.38;;
21519;SDS011;10921;53.614;9.882;2023-08-12T03:18:22;14.85;;;13.35;;
21519;SDS011;10921;53.614;9.882;2023-08-12T03:20:48;16.35;;;13.90;;
21519;SDS011;10921;53.614;9.882;2023-08-12T03:23:15;14.35;;;13.05;;
21519;SDS011;10921;53.614;9.882;2023-08-12T03:25:41;15.35;;;14.05;;
21519;SDS011;10921;53.614;9.882;2023-08-12T03:28:08;16.10;;;14.40;;
21519;SDS011;10921;53.614;9.882;2023-08-12T03:30:35;16.30;;;14.55;;
21519;SDS011;10921;53.614;9.882;2023-08-12T03:33:01;15.60;;;14.20;;
21519;SDS011;10921;53.614;9.882;2023-08-12T03:35:29;16.25;;;14.00;;
21519;SDS011;10921;53.614;9.882;2023-08-12T03:37:55;15.90;;;14.18;;
21519;SDS011;10921;53.614;9.882;2023-08-12T03:40:22;17.02;;;14.02;;
21519;SDS011;10921;53.614;9.882;2023-08-12T03:42:48;16.00;;;14.30;;
21519;SDS011;10921;53.614;9.882;2023-08-12T03:45:15;16.75;;;11.90;;
21519;SDS011;10921;53.614;9.882;2023-08-12T03:47:41;15.02;;;12.32;;
21519;SDS011;10921;53.614;9.882;2023-08-12T03:50:08;12.82;;;11.77;;
21519;SDS011;10921;53.614;9.882;2023-08-12T03:52:35;13.30;;;12.00;;
21519;SDS011;10921;53.614;9.882;2023-08-12T03:55:01;13.35;;;12.15;;
21519;SDS011;10921;53.614;9.882;2023-08-12T03:57:28;19.30;;;11.85;;
21519;SDS011;10921;53.614;9.882;2023-08-12T03:59:54;12.95;;;11.82;;
21519;SDS011;10921;53.614;9.882;2023-08-12T04:02:21;13.82;;;12.32;;
21519;SDS011;10921;53.614;9.882;2023-08-12T04:04:48;13.32;;;11.63;;
21519;SDS011;10921;53.614;9.882;2023-08-12T04:07:14;13.25;;;12.05;;
21519;SDS011;10921;53.614;9.882;2023-08-12T04:09:41;13.27;;;12.02;;
21519;SDS011;10921;53.614;9.882;2023-08-12T04:12:07;13.85;;;12.35;;
21519;SDS011;10921;53.614;9.882;2023-08-12T04:14:34;13.05;;;11.90;;
21519;SDS011;10921;53.614;9.882;2023-08-12T04:17:00;13.40;;;12.07;;
21519;SDS011;10921;53.614;9.882;2023-08-12T04:19:27;14.75;;;13.35;;
21519;SDS011;10921;53.614;9.882;2023-08-12T04:21:54;14.38;;;12.20;;
21519;SDS011;10921;53.614;9.882;2023-08-12T04:24:20;13.73;;;12.52;;
21519;SDS011;10921;53.614;9.882;2023-08-12T04:26:47;13.27;;;12.10;;
21519;SDS011;10921;53.614;9.882;2023-08-12T04:29:13;13.88;;;12.60;;
21519;SDS011;10921;53.614;9.882;2023-08-12T04:31:40;13.15;;;11.90;;
21519;SDS011;10921;53.614;9.882;2023-08-12T04:34:07;13.23;;;11.80;;
21519;SDS011;10921;53.614;9.882;2023-08-12T04:36:34;14.35;;;12.82;;
21519;SDS011;10921;53.614;9.882;2023-08-12T04:39:00;13.93;;;12.52;;
21519;SDS011;10921;53.614;9.882;2023-08-12T04:41:27;14.27;;;11.85;;
21519;SDS011;10921;53.614;9.882;2023-08-12T04:43:54;15.73;;;12.52;;
21519;SDS011;10921;53.614;9.882;2023-08-12T04:46:20;13.90;;;12.27;;
21519;SDS011;10921;53.614;9.882;2023-08-12T04:48:47;16.40;;;12.18;;
21519;SDS011;10921;53.614;9.882;2023-08-12T04:51:14;12.98;;;11.82;;
21519;SDS011;10921;53.614;9.882;2023-08-12T04:53:40;14.15;;;12.82;;
21519;SDS011;10921;53.614;9.882;2023-08-12T04:56:07;17.38;;;13.38;;
21519;SDS011;10921;53.614;9.882;2023-08-12T04:58:33;16.27;;;12.73;;
21519;SDS011;10921;53.614;9.882;2023-08-12T05:01:00;14.43;;;12.93;;
21519;SDS011;10921;53.614;9.882;2023-08-12T05:03:27;17.75;;;13.20;;
21519;SDS011;10921;53.614;9.882;2023-08-12T05:05:54;15.85;;;13.00;;
21519;SDS011;10921;53.614;9.882;2023-08-12T05:08:21;24.88;;;13.50;;
21519;SDS011;10921;53.614;9.882;2023-08-12T05:10:47;18.27;;;14.80;;
21519;SDS011;10921;53.614;9.882;2023-08-12T05:13:15;14.85;;;13.27;;
21519;SDS011;10921;53.614;9.882;2023-08-12T05:15:44;16.08;;;14.38;;
21519;SDS011;10921;53.614;9.882;2023-08-12T05:18:12;17.65;;;13.57;;
21519;SDS011;10921;53.614;9.882;2023-08-12T05:20:39;14.57;;;13.32;;
21519;SDS011;10921;53.614;9.882;2023-08-12T05:23:11;21.30;;;13.68;;
21519;SDS011;10921;53.614;9.882;2023-08-12T05:25:38;15.88;;;14.30;;
21519;SDS011;10921;53.614;9.882;2023-08-12T05:28:05;17.75;;;16.00;;
21519;SDS011;10921;53.614;9.882;2023-08-12T05:30:32;19.05;;;17.23;;
21519;SDS011;10921;53.614;9.882;2023-08-12T05:32:58;21.67;;;19.77;;
21519;SDS011;10921;53.614;9.882;2023-08-12T05:35:25;24.13;;;21.58;;
21519;SDS011;10921;53.614;9.882;2023-08-12T05:37:53;23.55;;;21.23;;
21519;SDS011;10921;53.614;9.882;2023-08-12T05:40:19;30.23;;;27.25;;
21519;SDS011;10921;53.614;9.882;2023-08-12T05:42:46;33.47;;;30.25;;
21519;SDS011;10921;53.614;9.882;2023-08-12T05:45:12;33.67;;;30.33;;
21519;SDS011;10921;53.614;9.882;2023-08-12T05:47:39;33.55;;;30.67;;
21519;SDS011;10921;53.614;9.882;2023-08-12T05:50:06;32.53;;;29.60;;
21519;SDS011;10921;53.614;9.882;2023-08-12T05:52:32;31.55;;;28.77;;
21519;SDS011;10921;53.614;9.882;2023-08-12T05:54:59;31.98;;;29.13;;
21519;SDS011;10921;53.614;9.882;2023-08-12T05:57:26;32.70;;;29.48;;
21519;SDS011;10921;53.614;9.882;2023-08-12T05:59:54;31.55;;;28.95;;
21519;SDS011;10921;53.614;9.882;2023-08-12T06:02:21;34.33;;;31.40;;
21519;SDS011;10921;53.614;9.882;2023-08-12T06:04:48;36.28;;;33.28;;
21519;SDS011;10921;53.614;9.882;2023-08-12T06:07:14;37.30;;;33.90;;
21519;SDS011;10921;53.614;9.882;2023-08-12T06:09:41;36.72;;;33.53;;
21519;SDS011;10921;53.614;9.882;2023-08-12T06:12:07;37.70;;;34.40;;
21519;SDS011;10921;53.614;9.882;2023-08-12T06:14:36;38.40;;;34.85;;
21519;SDS011;10921;53.614;9.882;2023-08-12T06:17:04;38.33;;;34.88;;
21519;SDS011;10921;53.614;9.882;2023-08-12T06:19:31;37.42;;;34.33;;
21519;SDS011;10921;53.614;9.882;2023-08-12T06:21:57;40.95;;;37.15;;
21519;SDS011;10921;53.614;9.882;2023-08-12T06:24:24;41.88;;;37.88;;
21519;SDS011;10921;53.614;9.882;2023-08-12T06:26:50;43.33;;;39.42;;
21519;SDS011;10921;53.614;9.882;2023-08-12T06:29:17;44.25;;;40.05;;
21519;SDS011;10921;53.614;9.882;2023-08-12T06:31:43;44.78;;;40.47;;
21519;SDS011;10921;53.614;9.882;2023-08-12T06:34:10;45.38;;;41.13;;
21519;SDS011;10921;53.614;9.882;2023-08-12T06:36:36;45.65;;;41.25;;
21519;SDS011;10921;53.614;9.882;2023-08-12T06:39:03;47.25;;;42.55;;
21519;SDS011;10921;53.614;9.882;2023-08-12T06:41:29;47.80;;;42.28;;
21519;SDS011;10921;53.614;9.882;2023-08-12T06:43:56;47.97;;;43.10;;
21519;SDS011;10921;53.614;9.882;2023-08-12T06:46:22;47.83;;;43.05;;
21519;SDS011;10921;53.614;9.882;2023-08-12T06:48:49;48.13;;;43.17;;
21519;SDS011;10921;53.614;9.882;2023-08-12T06:51:15;49.63;;;44.28;;
21519;SDS011;10921;53.614;9.882;2023-08-12T06:53:42;49.67;;;44.53;;
21519;SDS011;10921;53.614;9.882;2023-08-12T06:56:09;48.65;;;43.65;;
21519;SDS011;10921;53.614;9.882;2023-08-12T06:58:35;50.67;;;45.53;;
21519;SDS011;10921;53.614;9.882;2023-08-12T07:01:02;49.97;;;44.75;;
21519;SDS011;10921;53.614;9.882;2023-08-12T07:03:29;50.42;;;45.28;;
21519;SDS011;10921;53.614;9.882;2023-08-12T07:05:55;50.50;;;45.38;;
21519;SDS011;10921;53.614;9.882;2023-08-12T07:08:22;50.55;;;44.50;;
21519;SDS011;10921;53.614;9.882;2023-08-12T07:10:49;50.17;;;44.88;;
21519;SDS011;10921;53.614;9.882;2023-08-12T07:13:15;49.92;;;44.78;;
21519;SDS011;10921;53.614;9.882;2023-08-12T07:15:42;49.33;;;44.20;;
21519;SDS011;10921;53.614;9.882;2023-08-12T07:18:09;50.35;;;44.97;;
21519;SDS011;10921;53.614;9.882;2023-08-12T07:20:35;48.42;;;43.70;;
21519;SDS011;10921;53.614;9.882;2023-08-12T07:23:02;48.90;;;43.85;;
21519;SDS011;10921;53.614;9.882;2023-08-12T07:25:28;48.55;;;43.40;;
21519;SDS011;10921;53.614;9.882;2023-08-12T07:27:55;49.88;;;42.88;;
21519;SDS011;10921;53.614;9.882;2023-08-12T07:30:22;48.15;;;42.75;;
21519;SDS011;10921;53.614;9.882;2023-08-12T07:32:49;113.40;;;47.40;;
21519;SDS011;10921;53.614;9.882;2023-08-12T07:35:15;47.65;;;42.67;;
21519;SDS011;10921;53.614;9.882;2023-08-12T07:37:42;48.38;;;43.60;;
21519;SDS011;10921;53.614;9.882;2023-08-12T07:40:08;48.03;;;42.97;;
21519;SDS011;10921;53.614;9.882;2023-08-12T07:42:35;48.80;;;44.10;;
21519;SDS011;10921;53.614;9.882;2023-08-12T07:45:02;48.85;;;43.63;;
21519;SDS011;10921;53.614;9.882;2023-08-12T07:47:29;49.92;;;44.40;;
21519;SDS011;10921;53.614;9.882;2023-08-12T07:49:55;48.33;;;43.17;;
21519;SDS011;10921;53.614;9.882;2023-08-12T07:52:22;47.17;;;42.58;;
21519;SDS011;10921;53.614;9.882;2023-08-12T07:54:49;49.08;;;43.78;;
21519;SDS011;10921;53.614;9.882;2023-08-12T07:57:15;46.28;;;41.88;;
21519;SDS011;10921;53.614;9.882;2023-08-12T07:59:42;46.30;;;41.35;;
21519;SDS011;10921;53.614;9.882;2023-08-12T08:02:08;45.83;;;40.97;;
21519;SDS011;10921;53.614;9.882;2023-08-12T08:04:35;45.92;;;41.33;;
21519;SDS011;10921;53.614;9.882;2023-08-12T08:07:02;43.85;;;39.28;;
21519;SDS011;10921;53.614;9.882;2023-08-12T08:09:29;43.25;;;39.22;;
21519;SDS011;10921;53.614;9.882;2023-08-12T08:11:55;42.70;;;38.50;;
21519;SDS011;10921;53.614;9.882;2023-08-12T08:14:22;41.85;;;37.90;;
21519;SDS011;10921;53.614;9.882;2023-08-12T08:16:49;41.38;;;37.20;;
21519;SDS011;10921;53.614;9.882;2023-08-12T08:19:15;39.78;;;35.80;;
21519;SDS011;10921;53.614;9.882;2023-08-12T08:21:42;39.83;;;36.17;;
21519;SDS011;10921;53.614;9.882;2023-08-12T08:24:08;40.22;;;36.30;;
21519;SDS011;10921;53.614;9.882;2023-08-12T08:26:37;38.88;;;35.08;;
21519;SDS011;10921;53.614;9.882;2023-08-12T08:29:04;35.90;;;32.33;;
21519;SDS011;10921;53.614;9.882;2023-08-12T08:31:31;33.78;;;30.38;;
21519;SDS011;10921;53.614;9.882;2023-08-12T08:33:58;31.73;;;28.42;;
21519;SDS011;10921;53.614;9.882;2023-08-12T08:36:24;28.75;;;25.88;;
21519;SDS011;10921;53.614;9.882;2023-08-12T08:38:51;25.88;;;23.13;;
21519;SDS011;10921;53.614;9.882;2023-08-12T08:41:17;26.33;;;24.00;;
21519;SDS011;10921;53.614;9.882;2023-08-12T08:43:45;25.73;;;23.17;;
21519;SDS011;10921;53.614;9.882;2023-08-12T08:46:16;26.63;;;23.95;;
21519;SDS011;10921;53.614;9.882;2023-08-12T08:48:43;26.67;;;24.17;;
21519;SDS011;10921;53.614;9.882;2023-08-12T08:51:10;28.38;;;25.55;;
21519;SDS011;10921;53.614;9.882;2023-08-12T08:53:38;28.02;;;25.35;;
21519;SDS011;10921;53.614;9.882;2023-08-12T08:56:06;27.77;;;24.80;;
21519;SDS011;10921;53.614;9.882;2023-08-12T08:58:40;26.83;;;24.25;;
21519;SDS011;10921;53.614;9.882;2023-08-12T09:01:09;24.08;;;21.88;;
21519;SDS011;10921;53.614;9.882;2023-08-12T09:03:37;23.27;;;21.17;;
21519;SDS011;10921;53.614;9.882;2023-08-12T09:06:04;23.25;;;20.65;;
21519;SDS011;10921;53.614;9.882;2023-08-12T09:08:31;21.90;;;19.77;;
21519;SDS011;10921;53.614;9.882;2023-08-12T09:10:59;21.90;;;19.80;;
21519;SDS011;10921;53.614;9.882;2023-08-12T09:13:26;21.95;;;19.15;;
21519;SDS011;10921;53.614;9.882;2023-08-12T09:15:53;20.08;;;18.27;;
21519;SDS011;10921;53.614;9.882;2023-08-12T09:18:20;18.98;;;17.17;;
21519;SDS011;10921;53.614;9.882;2023-08-12T09:20:50;17.90;;;16.30;;
21519;SDS011;10921;53.614;9.882;2023-08-12T09:23:17;17.02;;;15.50;;
21519;SDS011;10921;53.614;9.882;2023-08-12T09:25:45;16.75;;;15.23;;
21519;SDS011;10921;53.614;9.882;2023-08-12T09:28:12;15.27;;;13.85;;
21519;SDS011;10921;53.614;9.882;2023-08-12T09:30:39;14.80;;;13.45;;
21519;SDS011;10921;53.614;9.882;2023-08-12T09:33:07;14.23;;;13.05;;
21519;SDS011;10921;53.614;9.882;2023-08-12T09:35:35;14.98;;;13.57;;
21519;SDS011;10921;53.614;9.882;2023-08-12T09:38:07;16.13;;;14.63;;
21519;SDS011;10921;53.614;9.882;2023-08-12T09:40:37;17.75;;;16.17;;
21519;SDS011;10921;53.614;9.882;2023-08-12T09:43:04;20.85;;;18.95;;
21519;SDS011;10921;53.614;9.882;2023-08-12T09:45:31;20.77;;;19.00;;
21519;SDS011;10921;53.614;9.882;2023-08-12T09:47:59;21.02;;;19.20;;
21519;SDS011;10921;53.614;9.882;2023-08-12T09:50:26;21.63;;;19.73;;
21519;SDS011;10921;53.614;9.882;2023-08-12T09:52:54;21.23;;;19.50;;
21519;SDS011;10921;53.614;9.882;2023-08-12T09:55:23;20.85;;;19.20;;
21519;SDS011;10921;53.614;9.882;2023-08-12T09:57:51;20.48;;;18.73;;
21519;SDS011;10921;53.614;9.882;2023-08-12T10:00:19;19.83;;;18.23;;
21519;SDS011;10921;53.614;9.882;2023-08-12T10:02:48;19.52;;;17.80;;
21519;SDS011;10921;53.614;9.882;2023-08-12T10:05:31;19.35;;;17.42;;
21519;SDS011;10921;53.614;9.882;2023-08-12T10:07:58;18.50;;;16.88;;
21519;SDS011;10921;53.614;9.882;2023-08-12T10:10:27;18.57;;;17.03;;
21519;SDS011;10921;53.614;9.882;2023-08-12T10:12:56;17.95;;;16.08;;
21519;SDS011;10921;53.614;9.882;2023-08-12T10:15:22;16.27;;;14.88;;
21519;SDS011;10921;53.614;9.882;2023-08-12T10:17:51;16.48;;;15.00;;
21519;SDS011;10921;53.614;9.882;2023-08-12T10:20:20;16.35;;;14.85;;
21519;SDS011;10921;53.614;9.882;2023-08-12T10:22:49;17.67;;;15.13;;
21519;SDS011;10921;53.614;9.882;2023-08-12T10:25:17;16.23;;;14.63;;
21519;SDS011;10921;53.614;9.882;2023-08-12T10:27:48;18.48;;;16.58;;
21519;SDS011;10921;53.614;9.882;2023-08-12T10:30:15;20.83;;;18.52;;
21519;SDS011;10921;53.614;9.882;2023-08-12T10:32:41;21.13;;;16.55;;
21519;SDS011;10921;53.614;9.882;2023-08-12T10:35:09;21.33;;;18.10;;
21519;SDS011;10921;53.614;9.882;2023-08-12T10:37:36;20.02;;;17.85;;
21519;SDS011;10921;53.614;9.882;2023-08-12T10:40:04;20.70;;;17.85;;
21519;SDS011;10921;53.614;9.882;2023-08-12T10:42:44;22.08;;;17.70;;
21519;SDS011;10921;53.614;9.882;2023-08-12T10:45:13;19.70;;;17.90;;
21519;SDS011;10921;53.614;9.882;2023-08-12T10:47:41;19.75;;;17.83;;
21519;SDS011;10921;53.614;9.882;2023-08-12T10:50:16;25.95;;;20.98;;
21519;SDS011;10921;53.614;9.882;2023-08-12T10:52:44;23.23;;;21.02;;
21519;SDS011;10921;53.614;9.882;2023-08-12T10:57:45;20.48;;;18.38;;
21519;SDS011;10921;53.614;9.882;2023-08-12T11:00:19;21.83;;;16.85;;
21519;SDS011;10921;53.614;9.882;2023-08-12T11:02:53;17.95;;;16.20;;
21519;SDS011;10921;53.614;9.882;2023-08-12T11:05:21;18.17;;;16.52;;
21519;SDS011;10921;53.614;9.882;2023-08-12T11:07:56;17.77;;;16.13;;
21519;SDS011;10921;53.614;9.882;2023-08-12T11:10:32;20.55;;;17.25;;
21519;SDS011;10921;53.614;9.882;2023-08-12T11:13:01;17.67;;;16.08;;
21519;SDS011;10921;53.614;9.882;2023-08-12T11:15:29;17.52;;;15.93;;
21519;SDS011;10921;53.614;9.882;2023-08-12T11:17:59;18.02;;;15.80;;
21519;SDS011;10921;53.614;9.882;2023-08-12T11:20:28;17.70;;;16.10;;
21519;SDS011;10921;53.614;9.882;2023-08-12T11:22:57;16.90;;;15.27;;
21519;SDS011;10921;53.614;9.882;2023-08-12T11:25:27;16.48;;;14.98;;
21519;SDS011;10921;53.614;9.882;2023-08-12T11:27:55;16.27;;;14.80;;
21519;SDS011;10921;53.614;9.882;2023-08-12T11:30:22;16.58;;;14.95;;
21519;SDS011;10921;53.614;9.882;2023-08-12T11:32:51;16.38;;;14.93;;
21519;SDS011;10921;53.614;9.882;2023-08-12T11:35:19;16.83;;;14.97;;
21519;SDS011;10921;53.614;9.882;2023-08-12T11:37:47;15.65;;;14.25;;
21519;SDS011;10921;53.614;9.882;2023-08-12T11:40:19;16.35;;;14.85;;
21519;SDS011;10921;53.614;9.882;2023-08-12T11:42:46;16.60;;;15.10;;
21519;SDS011;10921;53.614;9.882;2023-08-12T11:45:15;17.40;;;15.60;;
21519;SDS011;10921;53.614;9.882;2023-08-12T11:47:44;16.85;;;15.23;;
21519;SDS011;10921;53.614;9.882;2023-08-12T11:50:11;16.38;;;14.85;;
21519;SDS011;10921;53.614;9.882;2023-08-12T11:52:39;18.02;;;15.90;;
21519;SDS011;10921;53.614;9.882;2023-08-12T11:55:07;22.08;;;20.08;;
21519;SDS011;10921;53.614;9.882;2023-08-12T11:57:34;27.30;;;24.90;;
21519;SDS011;10921;53.614;9.882;2023-08-12T12:00:01;30.58;;;27.67;;
21519;SDS011;10921;53.614;9.882;2023-08-12T12:02:31;36.85;;;33.63;;
21519;SDS011;10921;53.614;9.882;2023-08-12T12:05:07;39.28;;;35.30;;
21519;SDS011;10921;53.614;9.882;2023-08-12T12:07:35;39.03;;;35.00;;
21519;SDS011;10921;53.614;9.882;2023-08-12T12:10:03;41.05;;;36.85;;
21519;SDS011;10921;53.614;9.882;2023-08-12T12:12:35;39.45;;;35.95;;
21519;SDS011;10921;53.614;9.882;2023-08-12T12:15:02;41.55;;;37.75;;
21519;SDS011;10921;53.614;9.882;2023-08-12T12:17:30;41.67;;;37.65;;
21519;SDS011;10921;53.614;9.882;2023-08-12T12:19:57;41.70;;;37.90;;
21519;SDS011;10921;53.614;9.882;2023-08-12T12:22:28;41.67;;;37.90;;
21519;SDS011;10921;53.614;9.882;2023-08-12T12:24:59;40.88;;;37.17;;
21519;SDS011;10921;53.614;9.882;2023-08-12T12:27:31;41.25;;;37.45;;
21519;SDS011;10921;53.614;9.882;2023-08-12T12:29:57;42.80;;;38.80;;
21519;SDS011;10921;53.614;9.882;2023-08-12T12:32:24;42.45;;;38.25;;
21519;SDS011;10921;53.614;9.882;2023-08-12T12:34:51;42.13;;;37.97;;
21519;SDS011;10921;53.614;9.882;2023-08-12T12:37:18;41.78;;;38.03;;
21519;SDS011;10921;53.614;9.882;2023-08-12T12:39:45;42.50;;;38.08;;
21519;SDS011;10921;53.614;9.882;2023-08-12T12:42:12;41.85;;;37.78;;
21519;SDS011;10921;53.614;9.882;2023-08-12T12:44:39;42.10;;;38.13;;
21519;SDS011;10921;53.614;9.882;2023-08-12T12:47:06;41.78;;;37.90;;
21519;SDS011;10921;53.614;9.882;2023-08-12T12:49:33;42.85;;;38.67;;
21519;SDS011;10921;53.614;9.882;2023-08-12T12:52:00;41.67;;;37.90;;
21519;SDS011;10921;53.614;9.882;2023-08-12T12:54:26;43.22;;;38.55;;
21519;SDS011;10921;53.614;9.882;2023-08-12T12:56:53;41.95;;;37.95;;
21519;SDS011;10921;53.614;9.882;2023-08-12T12:59:20;41.95;;;37.67;;
21519;SDS011;10921;53.614;9.882;2023-08-12T13:01:46;41.72;;;37.83;;
21519;SDS011;10921;53.614;9.882;2023-08-12T13:04:13;42.92;;;38.53;;
21519;SDS011;10921;53.614;9.882;2023-08-12T13:06:39;42.65;;;38.45;;
21519;SDS011;10921;53.614;9.882;2023-08-12T13:09:06;42.22;;;38.10;;
21519;SDS011;10921;53.614;9.882;2023-08-12T13:11:33;42.28;;;38.08;;
21519;SDS011;10921;53.614;9.882;2023-08-12T13:14:03;43.80;;;39.40;;
21519;SDS011;10921;53.614;9.882;2023-08-12T13:16:30;43.53;;;39.20;;
21519;SDS011;10921;53.614;9.882;2023-08-12T13:18:56;44.10;;;38.42;;
21519;SDS011;10921;53.614;9.882;2023-08-12T13:21:24;42.05;;;37.80;;
21519;SDS011;10921;53.614;9.882;2023-08-12T13:23:51;40.58;;;36.67;;
21519;SDS011;10921;53.614;9.882;2023-08-12T13:26:19;42.10;;;38.08;;
21519;SDS011;10921;53.614;9.882;2023-08-12T13:28:46;42.08;;;37.80;;
21519;SDS011;10921;53.614;9.882;2023-08-12T13:31:12;41.58;;;37.53;;
21519;SDS011;10921;53.614;9.882;2023-08-12T13:33:39;41.92;;;38.03;;
21519;SDS011;10921;53.614;9.882;2023-08-12T13:36:05;42.10;;;37.75;;
21519;SDS011;10921;53.614;9.882;2023-08-12T13:38:32;41.85;;;38.05;;
21519;SDS011;10921;53.614;9.882;2023-08-12T13:40:58;42.55;;;38.45;;
21519;SDS011;10921;53.614;9.882;2023-08-12T13:43:25;42.13;;;38.08;;
21519;SDS011;10921;53.614;9.882;2023-08-12T13:45:51;42.53;;;38.65;;
21519;SDS011;10921;53.614;9.882;2023-08-12T13:48:18;41.13;;;37.53;;
21519;SDS011;10921;53.614;9.882;2023-08-12T13:50:44;41.50;;;37.70;;
21519;SDS011;10921;53.614;9.882;2023-08-12T13:53:11;40.58;;;36.85;;
21519;SDS011;10921;53.614;9.882;2023-08-12T13:55:37;42.67;;;38.50;;
21519;SDS011;10921;53.614;9.882;2023-08-12T13:58:04;42.35;;;38.45;;
21519;SDS011;10921;53.614;9.882;2023-08-12T14:00:30;41.63;;;38.00;;
21519;SDS011;10921;53.614;9.882;2023-08-12T14:02:57;43.13;;;39.13;;
21519;SDS011;10921;53.614;9.882;2023-08-12T14:05:24;44.22;;;39.95;;
21519;SDS011;10921;53.614;9.882;2023-08-12T14:07:50;44.00;;;39.88;;
21519;SDS011;10921;53.614;9.882;2023-08-12T14:10:17;43.80;;;39.60;;
21519;SDS011;10921;53.614;9.882;2023-08-12T14:12:43;44.55;;;40.40;;
21519;SDS011;10921;53.614;9.882;2023-08-12T14:15:11;45.15;;;40.80;;
21519;SDS011;10921;53.614;9.882;2023-08-12T14:17:37;47.38;;;42.90;;
21519;SDS011;10921;53.614;9.882;2023-08-12T14:20:04;45.40;;;40.90;;
21519;SDS011;10921;53.614;9.882;2023-08-12T14:22:34;48.85;;;43.83;;
21519;SDS011;10921;53.614;9.882;2023-08-12T14:25:02;47.65;;;43.17;;
21519;SDS011;10921;53.614;9.882;2023-08-12T14:27:31;46.60;;;42.42;;
21519;SDS011;10921;53.614;9.882;2023-08-12T14:29:58;48.13;;;43.20;;
21519;SDS011;10921;53.614;9.882;2023-08-12T14:32:24;49.20;;;44.40;;